Time;durP1;ratioP1;P1;durP2;ratioP2;P2;SDS_P1;SDS_P2;PMS_P1;PMS_P2;Temp;Humidity;BMP_temperature;BMP_pressure;BME280_temperature;BME280_humidity;BME280_pressure;Samples;Min_cycle;Max_cycle;Signal;HPM_P1;HPM_P2
2022/07/13 00:00:31;;;;;;;1.53;1.17;;;;;;;20.17;45.16;99798.84;5055477;28;20258;-70
2022/07/13 00:02:57;;;;;;;2.23;1.60;;;;;;;20.17;45.25;99796.16;5055259;28;20662;-70
2022/07/13 00:05:24;;;;;;;1.40;1.30;;;;;;;20.12;45.29;99793.38;5055490;28;20197;-70
2022/07/13 00:07:52;;;;;;;1.40;1.30;;;;;;;19.98;45.64;99792.09;5055173;28;20193;-70
2022/07/13 00:10:19;;;;;;;1.90;1.20;;;;;;;20.01;45.62;99797.00;5055493;28;20250;-69
2022/07/13 00:12:46;;;;;;;3.33;1.47;;;;;;;19.96;45.60;99786.97;5054946;28;20618;-69
2022/07/13 00:15:13;;;;;;;1.90;1.47;;;;;;;20.06;45.70;99789.78;5055400;28;20250;-70
2022/07/13 00:17:39;;;;;;;1.80;1.10;;;;;;;20.10;45.33;99800.94;5055351;28;20200;-70
2022/07/13 00:20:07;;;;;;;1.30;1.30;;;;;;;20.05;45.66;99792.75;5055580;28;20235;-70
2022/07/13 00:22:34;;;;;;;1.30;1.20;;;;;;;19.99;45.96;99793.72;5054804;28;20220;-70
2022/07/13 00:25:02;;;;;;;2.00;1.23;;;;;;;20.08;45.89;99797.63;5055240;28;20188;-70
2022/07/13 00:27:29;;;;;;;3.07;1.43;;;;;;;20.04;45.89;99801.88;5055180;28;20246;-70
2022/07/13 00:29:56;;;;;;;1.37;1.23;;;;;;;19.98;45.97;99798.28;5055311;28;20200;-70
2022/07/13 00:32:23;;;;;;;2.77;1.43;;;;;;;19.87;46.34;99806.50;5055045;28;20211;-70
2022/07/13 00:34:49;;;;;;;3.33;1.50;;;;;;;19.82;46.30;99801.03;5054708;28;20253;-70
2022/07/13 00:37:16;;;;;;;1.53;1.23;;;;;;;19.79;46.44;99804.22;5055003;28;20330;-70
2022/07/13 00:39:43;;;;;;;1.90;1.40;;;;;;;19.78;46.35;99808.81;5055052;28;20626;-70
2022/07/13 00:42:11;;;;;;;1.27;1.17;;;;;;;19.77;46.66;99798.28;5054571;28;20288;-70
2022/07/13 00:44:38;;;;;;;2.30;1.40;;;;;;;19.89;46.42;99807.09;5054510;28;20545;-70
2022/07/13 00:47:05;;;;;;;1.40;1.30;;;;;;;19.90;46.20;99795.22;5054463;28;20250;-70
2022/07/13 00:49:32;;;;;;;2.73;1.50;;;;;;;19.78;46.71;99791.81;5055560;28;20192;-72
2022/07/13 00:51:59;;;;;;;4.63;1.37;;;;;;;19.73;46.99;99795.25;5054224;28;20283;-71
2022/07/13 00:54:29;;;;;;;2.03;1.47;;;;;;;19.60;47.05;99778.63;5054351;28;20247;-70
2022/07/13 00:56:57;;;;;;;1.53;1.40;;;;;;;19.75;46.86;99803.09;5054421;28;20237;-70
2022/07/13 00:59:26;;;;;;;1.80;1.30;;;;;;;19.63;47.12;99788.91;5054201;28;20196;-70
2022/07/13 01:01:54;;;;;;;1.63;1.50;;;;;;;19.66;47.01;99793.81;5054422;28;20288;-70
2022/07/13 01:04:23;;;;;;;1.80;1.70;;;;;;;19.64;47.02;99790.56;5054461;28;20201;-70
2022/07/13 01:06:50;;;;;;;2.20;1.37;;;;;;;19.63;46.83;99797.81;5054405;28;20572;-70
2022/07/13 01:09:18;;;;;;;3.07;1.37;;;;;;;19.61;47.04;99785.66;5054118;28;20664;-70
2022/07/13 01:11:45;;;;;;;2.13;1.60;;;;;;;19.65;47.01;99792.19;5054312;28;20200;-70
2022/07/13 01:14:13;;;;;;;1.67;1.57;;;;;;;19.61;47.20;99786.44;5053958;28;20730;-70
2022/07/13 01:16:41;;;;;;;1.70;1.60;;;;;;;19.61;47.43;99791.03;5053951;28;20690;-70
2022/07/13 01:19:11;;;;;;;1.67;1.57;;;;;;;19.49;47.44;99790.31;5055051;28;20195;-70
2022/07/13 01:21:41;;;;;;;2.50;1.40;;;;;;;19.57;47.63;99795.28;5055106;28;20346;-70
2022/07/13 01:24:10;;;;;;;2.07;1.67;;;;;;;19.58;47.79;99796.91;5054354;28;20200;-70
2022/07/13 01:26:37;;;;;;;4.97;1.40;;;;;;;19.56;47.94;99794.47;5053779;28;20650;-70
2022/07/13 01:29:04;;;;;;;3.40;1.50;;;;;;;19.51;48.31;99785.47;5053641;28;20667;-70
2022/07/13 01:31:35;;;;;;;2.40;1.60;;;;;;;19.52;48.50;99781.75;5054015;28;20200;-70
2022/07/13 01:34:03;;;;;;;2.97;1.87;;;;;;;19.47;48.52;99779.78;5053580;28;20199;-70
2022/07/13 01:36:30;;;;;;;2.03;1.47;;;;;;;19.47;48.71;99773.56;5054122;28;20261;-70
2022/07/13 01:38:57;;;;;;;3.53;1.60;;;;;;;19.42;48.70;99777.00;5053561;28;20196;-70
2022/07/13 01:41:28;;;;;;;3.90;1.27;;;;;;;19.53;48.39;99772.59;5054023;28;20633;-70
2022/07/13 01:43:54;;;;;;;2.60;1.90;;;;;;;19.40;48.63;99778.31;5054326;28;20215;-70
2022/07/13 01:46:21;;;;;;;2.00;1.70;;;;;;;19.33;49.01;99778.50;5053715;28;20280;-70
2022/07/13 01:48:48;;;;;;;2.13;1.70;;;;;;;19.25;49.17;99770.81;5053567;28;20196;-70
2022/07/13 01:51:14;;;;;;;1.60;1.50;;;;;;;19.32;48.80;99770.66;5053311;28;20661;-70
2022/07/13 01:53:41;;;;;;;2.60;1.60;;;;;;;19.32;48.72;99770.66;5053556;28;20195;-70
2022/07/13 01:56:08;;;;;;;1.67;1.40;;;;;;;19.28;48.93;99772.19;5053476;28;20199;-70
2022/07/13 01:58:36;;;;;;;1.40;1.30;;;;;;;19.21;49.04;99776.91;5052654;28;20643;-70
2022/07/13 02:01:03;;;;;;;1.97;1.87;;;;;;;19.23;49.16;99777.44;5054126;28;20216;-70
2022/07/13 02:03:30;;;;;;;4.37;1.50;;;;;;;19.24;49.18;99769.16;5053347;28;20556;-70
2022/07/13 02:05:58;;;;;;;2.10;1.90;;;;;;;19.15;49.34;99775.19;5053214;28;20288;-70
2022/07/13 02:08:24;;;;;;;1.60;1.50;;;;;;;19.04;49.54;99778.75;5052899;28;20574;-70
2022/07/13 02:10:51;;;;;;;3.30;1.47;;;;;;;19.00;49.80;99780.31;5053408;28;20221;-70
2022/07/13 02:13:19;;;;;;;3.00;1.43;;;;;;;19.11;49.50;99779.44;5053146;28;20201;-70
2022/07/13 02:15:47;;;;;;;1.83;1.67;;;;;;;19.14;49.13;99773.53;5053169;28;20579;-70
2022/07/13 02:18:14;;;;;;;1.50;1.30;;;;;;;19.12;49.32;99771.09;5053044;28;20264;-70
2022/07/13 02:20:42;;;;;;;1.77;1.67;;;;;;;19.12;49.30;99770.28;5052716;28;20672;-70
2022/07/13 02:23:08;;;;;;;1.67;1.57;;;;;;;19.15;49.16;99765.22;5052615;28;20216;-70
2022/07/13 02:25:37;;;;;;;1.83;1.73;;;;;;;19.04;49.69;99766.09;5052668;28;20326;-69
2022/07/13 02:28:04;;;;;;;1.50;1.40;;;;;;;18.98;49.92;99774.34;5052845;28;20203;-70
2022/07/13 02:30:31;;;;;;;1.63;1.53;;;;;;;18.91;50.22;99768.31;5053075;28;20238;-70
2022/07/13 02:32:59;;;;;;;1.70;1.60;;;;;;;18.86;50.26;99770.88;5052515;28;20630;-70
2022/07/13 02:35:26;;;;;;;1.80;1.50;;;;;;;18.80;50.40;99769.19;5052364;28;20676;-70
2022/07/13 02:37:53;;;;;;;2.57;1.80;;;;;;;18.82;49.99;99777.81;5052349;28;20686;-70
2022/07/13 02:40:21;;;;;;;2.33;1.60;;;;;;;18.81;50.12;99773.50;5052674;28;20192;-70
2022/07/13 02:42:47;;;;;;;1.27;1.17;;;;;;;18.78;50.04;99768.63;5052760;28;20244;-70
2022/07/13 02:45:14;;;;;;;2.03;1.83;;;;;;;18.78;50.30;99768.63;5052089;28;20736;-70
2022/07/13 02:47:41;;;;;;;1.60;1.50;;;;;;;18.76;50.43;99768.03;5052050;28;20195;-70
2022/07/13 02:50:10;;;;;;;1.50;1.40;;;;;;;18.74;50.50;99764.78;5052237;28;20628;-70
2022/07/13 02:52:37;;;;;;;2.67;1.57;;;;;;;18.71;50.85;99767.94;5052176;28;20671;-70
2022/07/13 02:55:04;;;;;;;2.33;1.80;;;;;;;18.63;50.99;99768.34;5052564;28;20625;-70
2022/07/13 02:57:31;;;;;;;5.40;2.00;;;;;;;18.53;51.24;99776.19;5052127;28;20247;-70
2022/07/13 02:59:59;;;;;;;4.70;1.50;;;;;;;18.48;51.49;99778.81;5052397;28;20206;-70
2022/07/13 03:02:25;;;;;;;2.93;1.73;;;;;;;18.56;51.17;99781.09;5052567;28;20224;-70
2022/07/13 03:04:52;;;;;;;3.03;1.73;;;;;;;18.66;50.89;99784.00;5051963;28;20550;-70
2022/07/13 03:07:20;;;;;;;2.27;2.17;;;;;;;18.61;51.03;99778.50;5051765;28;20552;-70
2022/07/13 03:09:47;;;;;;;3.57;1.93;;;;;;;18.63;51.10;99771.81;5051877;28;20196;-70
2022/07/13 03:12:14;;;;;;;3.27;1.80;;;;;;;18.53;51.14;99770.81;5051452;28;20204;-70
2022/07/13 03:14:40;;;;;;;1.60;1.50;;;;;;;18.51;51.50;99767.56;5052518;28;20188;-70
2022/07/13 03:17:07;;;;;;;1.63;1.53;;;;;;;18.47;51.65;99769.09;5052199;28;20196;-70
2022/07/13 03:19:34;;;;;;;2.20;1.93;;;;;;;18.42;51.95;99769.81;5052418;28;20249;-70
2022/07/13 03:22:03;;;;;;;2.23;1.70;;;;;;;18.58;51.54;99776.31;5051761;28;20278;-70
2022/07/13 03:24:32;;;;;;;2.07;1.63;;;;;;;18.61;51.36;99773.13;5052622;28;20196;-70
2022/07/13 03:26:58;;;;;;;1.77;1.67;;;;;;;18.73;51.55;99772.03;5052069;28;20196;-70
2022/07/13 03:29:25;;;;;;;4.43;2.07;;;;;;;18.80;51.19;99778.09;5052184;28;20273;-70
2022/07/13 03:31:52;;;;;;;2.10;1.90;;;;;;;18.77;51.11;99777.72;5052353;28;20199;-70
2022/07/13 03:34:19;;;;;;;2.17;1.97;;;;;;;18.77;50.81;99777.72;5051727;28;20698;-70
2022/07/13 03:36:46;;;;;;;1.67;1.57;;;;;;;18.74;51.00;99778.25;5051662;28;20197;-70
2022/07/13 03:39:12;;;;;;;3.30;1.93;;;;;;;18.67;50.79;99761.41;5051588;28;20194;-70
2022/07/13 03:41:40;;;;;;;3.20;1.63;;;;;;;18.79;50.22;99772.94;5051494;28;20289;-70
2022/07/13 03:44:07;;;;;;;2.20;1.50;;;;;;;18.84;50.40;99786.47;5051873;28;20216;-70
2022/07/13 03:46:34;;;;;;;3.17;1.70;;;;;;;19.13;49.60;99788.91;5052694;28;20642;-70
2022/07/13 03:49:01;;;;;;;2.10;1.70;;;;;;;19.22;49.22;99782.03;5052424;28;20212;-70
2022/07/13 03:51:27;;;;;;;17.10;3.43;;;;;;;19.26;49.26;99787.78;5051450;28;20220;-70
2022/07/13 03:53:54;;;;;;;2.93;1.73;;;;;;;19.24;49.38;99776.44;5052494;28;20204;-70
2022/07/13 03:56:21;;;;;;;2.37;1.70;;;;;;;19.42;49.04;99781.56;5051501;28;20723;-69
2022/07/13 03:58:49;;;;;;;5.20;1.73;;;;;;;19.72;48.22;99784.72;5051756;28;20199;-69
2022/07/13 04:01:18;;;;;;;1.80;1.70;;;;;;;19.83;48.30;99789.19;5052012;28;20192;-69
2022/07/13 04:03:45;;;;;;;2.20;2.00;;;;;;;19.89;48.84;99788.22;5051338;28;20220;-69
2022/07/13 04:06:11;;;;;;;2.47;1.90;;;;;;;19.68;48.90;99794.34;5051329;28;20253;-69
2022/07/13 04:08:38;;;;;;;3.03;1.97;;;;;;;19.62;49.24;99789.97;5051628;28;20280;-69
2022/07/13 04:11:05;;;;;;;5.23;2.03;;;;;;;19.75;49.10;99785.03;5051095;28;20665;-69
2022/07/13 04:13:32;;;;;;;3.37;1.80;;;;;;;20.45;47.08;99777.06;5051424;28;20200;-69
2022/07/13 04:16:00;;;;;;;5.83;2.17;;;;;;;21.71;44.05;99781.75;5051781;28;20196;-68
2022/07/13 04:18:27;;;;;;;1.97;1.53;;;;;;;22.51;40.93;99787.59;5051070;28;20725;-68
2022/07/13 04:20:54;;;;;;;2.70;1.40;;;;;;;23.36;38.52;99793.19;5051786;28;20429;-68
2022/07/13 04:23:20;;;;;;;3.50;1.87;;;;;;;23.96;37.41;99791.22;5053834;28;20722;-69
2022/07/13 04:25:47;;;;;;;2.87;1.60;;;;;;;24.80;35.53;99789.22;5055236;28;20193;-68
2022/07/13 04:28:14;;;;;;;6.77;1.97;;;;;;;25.28;34.50;99797.63;5054789;28;20674;-68
2022/07/13 04:30:40;;;;;;;4.10;1.40;;;;;;;25.61;33.63;99791.38;5055066;28;20190;-68
2022/07/13 04:33:09;;;;;;;2.33;1.30;;;;;;;26.00;32.78;99805.72;5054724;28;20611;-68
2022/07/13 04:35:35;;;;;;;3.20;1.50;;;;;;;26.73;31.82;99801.53;5054583;28;20200;-68
2022/07/13 04:38:02;;;;;;;2.23;1.70;;;;;;;27.27;30.46;99810.84;5054911;28;20196;-68
2022/07/13 04:40:29;;;;;;;3.50;1.20;;;;;;;27.46;30.45;99800.72;5054765;28;20192;-68
2022/07/13 04:42:56;;;;;;;3.57;1.20;;;;;;;27.47;30.19;99804.22;5054820;28;20232;-68
2022/07/13 04:45:23;;;;;;;4.87;1.30;;;;;;;27.82;29.74;99807.19;5055432;28;20188;-68
2022/07/13 04:47:50;;;;;;;1.70;1.20;;;;;;;28.13;29.14;99810.97;5055077;28;20251;-68
2022/07/13 04:50:19;;;;;;;4.97;1.47;;;;;;;28.70;28.49;99815.00;5054244;28;20224;-68
2022/07/13 04:52:45;;;;;;;9.77;1.50;;;;;;;29.15;27.56;99817.53;5054314;28;20283;-68
2022/07/13 04:55:12;;;;;;;8.87;1.77;;;;;;;29.24;27.55;99807.47;5054129;28;20566;-68
2022/07/13 04:57:39;;;;;;;9.30;1.67;;;;;;;28.98;27.76;99816.56;5055190;28;20193;-68
2022/07/13 05:00:08;;;;;;;2.10;1.40;;;;;;;28.95;27.57;99822.66;5054339;28;20278;-69
2022/07/13 05:02:35;;;;;;;9.90;1.37;;;;;;;29.01;27.56;99821.44;5054283;28;20224;-68
2022/07/13 05:05:03;;;;;;;5.60;1.20;;;;;;;29.18;27.28;99824.31;5053995;28;20652;-69
2022/07/13 05:07:31;;;;;;;2.00;1.17;;;;;;;29.08;27.15;99822.63;5053753;28;20251;-68
2022/07/13 05:09:58;;;;;;;4.90;1.37;;;;;;;29.58;26.62;99819.81;5053694;28;20197;-68
2022/07/13 05:12:25;;;;;;;1.17;1.07;;;;;;;29.63;27.21;99820.50;5053527;28;20752;-68
2022/07/13 05:14:51;;;;;;;1.97;1.10;;;;;;;30.17;26.33;99825.63;5054495;28;20188;-68
2022/07/13 05:17:18;;;;;;;8.80;1.40;;;;;;;30.37;26.45;99825.06;5054098;28;20262;-68
2022/07/13 05:19:45;;;;;;;18.80;2.73;;;;;;;29.85;26.22;99825.13;5053715;28;20695;-68
2022/07/13 05:22:11;;;;;;;4.37;1.43;;;;;;;30.09;26.29;99812.66;5053899;28;20196;-69
2022/07/13 05:24:43;;;;;;;2.40;1.00;;;;;;;29.70;26.08;99820.88;5053913;28;20192;-68
2022/07/13 05:27:11;;;;;;;7.53;1.00;;;;;;;29.44;26.36;99816.31;5054007;28;20189;-68
2022/07/13 05:29:37;;;;;;;6.87;1.30;;;;;;;29.27;26.66;99821.66;5053806;28;20287;-68
2022/07/13 05:32:05;;;;;;;2.70;0.93;;;;;;;29.86;26.48;99824.84;5050424;28;20993;-68
2022/07/13 05:34:32;;;;;;;7.50;1.60;;;;;;;30.09;26.09;99826.38;5052790;28;20193;-69
2022/07/13 05:36:58;;;;;;;4.07;1.60;;;;;;;29.73;26.33;99836.69;5053313;28;20746;-69
2022/07/13 05:39:25;;;;;;;6.37;1.57;;;;;;;29.97;26.49;99839.84;5053750;28;20250;-67
2022/07/13 05:41:53;;;;;;;5.00;1.30;;;;;;;29.50;27.05;99832.31;5053202;28;20629;-67
2022/07/13 05:44:20;;;;;;;4.83;1.40;;;;;;;28.63;28.04;99828.28;5053683;28;20679;-66
2022/07/13 05:46:47;;;;;;;5.03;1.40;;;;;;;29.35;27.70;99827.19;5053258;28;20227;-70
2022/07/13 05:49:13;;;;;;;1.70;1.30;;;;;;;29.47;27.52;99827.44;5053451;28;20196;-67
2022/07/13 05:51:40;;;;;;;3.60;1.40;;;;;;;29.96;27.48;99823.75;5053226;28;20717;-67
2022/07/13 05:54:07;;;;;;;5.30;1.30;;;;;;;30.02;26.81;99833.44;5052720;28;20200;-67
2022/07/13 05:56:34;;;;;;;5.13;1.37;;;;;;;30.14;27.41;99820.81;5053352;28;20200;-67
2022/07/13 05:59:02;;;;;;;3.50;0.90;;;;;;;30.43;27.20;99823.81;5052887;28;20284;-67
2022/07/13 06:01:29;;;;;;;5.20;1.10;;;;;;;30.36;26.39;99826.22;5053169;28;20193;-67
2022/07/13 06:03:56;;;;;;;5.83;1.30;;;;;;;29.66;26.33;99819.88;5053036;28;20229;-67
2022/07/13 06:06:22;;;;;;;5.10;1.40;;;;;;;29.95;26.63;99814.72;5052724;28;20247;-68
2022/07/13 06:08:49;;;;;;;8.30;2.00;;;;;;;29.87;26.40;99820.97;5053268;28;20196;-67
2022/07/13 06:11:16;;;;;;;6.07;1.30;;;;;;;29.81;26.57;99811.28;5053537;28;20196;-67
2022/07/13 06:13:42;;;;;;;3.70;1.03;;;;;;;29.54;26.77;99814.13;5052685;28;20192;-67
2022/07/13 06:16:11;;;;;;;4.03;1.20;;;;;;;30.13;26.60;99805.44;5052497;28;20196;-67
2022/07/13 06:18:38;;;;;;;2.73;1.30;;;;;;;29.01;27.58;99796.81;5052512;28;20200;-67
2022/07/13 06:21:04;;;;;;;4.07;1.17;;;;;;;29.19;27.54;99804.03;5052918;28;20192;-67
2022/07/13 06:23:31;;;;;;;5.60;1.40;;;;;;;29.47;27.39;99794.59;5052658;28;20645;-68
2022/07/13 06:25:59;;;;;;;2.13;0.80;;;;;;;29.79;27.69;99804.47;5052942;28;20238;-68
2022/07/13 06:28:26;;;;;;;7.73;1.20;;;;;;;30.08;26.30;99799.31;5052210;28;20589;-68
2022/07/13 06:30:53;;;;;;;6.20;1.10;;;;;;;29.92;26.80;99801.63;5052478;28;20804;-68
2022/07/13 06:33:21;;;;;;;3.87;1.00;;;;;;;30.08;26.52;99800.09;5052644;28;20204;-68
2022/07/13 06:35:48;;;;;;;4.63;1.10;;;;;;;30.26;26.58;99811.97;5052601;28;20203;-68
2022/07/13 06:38:15;;;;;;;8.97;1.43;;;;;;;30.20;26.18;99805.81;5052164;28;20723;-68
2022/07/13 06:40:42;;;;;;;7.07;1.80;;;;;;;29.70;27.77;99804.44;5052294;28;20189;-68
2022/07/13 06:43:08;;;;;;;15.80;2.00;;;;;;;29.70;27.27;99798.97;5052658;28;20229;-67
2022/07/13 06:45:35;;;;;;;2.53;1.37;;;;;;;30.10;27.36;99803.34;5053381;28;20224;-69
2022/07/13 06:48:02;;;;;;;2.13;0.70;;;;;;;30.03;26.50;99797.50;5052110;28;20200;-69
2022/07/13 06:50:30;;;;;;;4.87;1.03;;;;;;;30.56;26.18;99798.19;5053288;28;20250;-69
2022/07/13 06:52:57;;;;;;;1.63;1.07;;;;;;;30.45;25.57;99794.13;5052398;28;20257;-69
2022/07/13 06:55:24;;;;;;;9.50;1.43;;;;;;;30.34;26.02;99795.53;5052167;28;20278;-69
2022/07/13 06:57:51;;;;;;;4.73;1.40;;;;;;;30.60;26.33;99801.09;5051966;28;20196;-68
2022/07/13 07:00:18;;;;;;;4.23;1.50;;;;;;;30.67;25.98;99790.47;5053180;28;20195;-68
2022/07/13 07:02:44;;;;;;;9.83;1.10;;;;;;;30.50;25.90;99793.97;5052074;28;20197;-68
2022/07/13 07:05:11;;;;;;;4.93;1.10;;;;;;;30.29;26.55;99794.91;5052003;28;20193;-69
2022/07/13 07:07:40;;;;;;;2.60;1.03;;;;;;;30.41;26.55;99795.88;5051940;28;20687;-70
2022/07/13 07:10:09;;;;;;;6.73;1.10;;;;;;;30.31;26.43;99793.47;5052312;28;20196;-69
2022/07/13 07:12:35;;;;;;;7.97;2.00;;;;;;;30.27;26.38;99787.00;5052138;28;20250;-68
2022/07/13 07:15:03;;;;;;;0.90;0.90;;;;;;;29.82;26.66;99785.50;5051826;28;20565;-68
2022/07/13 07:17:29;;;;;;;3.57;1.43;;;;;;;30.11;26.47;99783.03;5051769;28;20664;-68
2022/07/13 07:19:58;;;;;;;1.43;1.00;;;;;;;30.30;26.11;99783.63;5052087;28;20192;-68
2022/07/13 07:22:25;;;;;;;2.80;0.90;;;;;;;30.36;26.33;99785.06;5052086;28;20446;-68
2022/07/13 07:24:53;;;;;;;3.60;0.90;;;;;;;30.72;25.79;99776.63;5050606;28;20334;-68
2022/07/13 07:27:20;;;;;;;30.87;2.57;;;;;;;30.91;25.40;99791.63;5051932;28;20258;-68
2022/07/13 07:29:47;;;;;;;2.67;0.80;;;;;;;30.63;25.40;99790.31;5052094;28;20192;-68
2022/07/13 07:32:14;;;;;;;5.10;1.10;;;;;;;30.08;25.50;99791.88;5051859;28;20188;-68
2022/07/13 07:34:41;;;;;;;7.30;1.40;;;;;;;29.83;26.11;99778.88;5051850;28;20200;-68
2022/07/13 07:37:07;;;;;;;5.00;0.63;;;;;;;30.30;25.57;99791.84;5051987;28;20242;-68
2022/07/13 07:39:36;;;;;;;2.50;2.30;;;;;;;30.50;25.34;99795.94;5051507;28;20204;-68
2022/07/13 07:42:05;;;;;;;3.57;0.80;;;;;;;30.76;24.38;99789.38;5032041;28;20229;-68
2022/07/13 07:44:31;;;;;;;2.87;2.17;;;;;;;30.88;23.24;99792.31;5031919;28;20318;-68
2022/07/13 07:46:58;;;;;;;5.97;1.13;;;;;;;31.20;23.18;99789.03;5032723;28;20259;-69
2022/07/13 07:49:25;;;;;;;1.33;1.03;;;;;;;31.55;23.36;99785.16;5032217;28;20243;-69
2022/07/13 07:51:51;;;;;;;2.30;0.80;;;;;;;31.46;24.17;99789.88;5031507;28;20578;-69
2022/07/13 07:54:18;;;;;;;2.90;1.00;;;;;;;31.54;24.01;99797.28;5031418;28;20559;-69
2022/07/13 07:56:45;;;;;;;2.60;0.70;;;;;;;31.84;22.77;99788.03;5031783;28;20244;-69
2022/07/13 07:59:14;;;;;;;4.27;0.80;;;;;;;32.03;23.36;99782.94;5035989;28;20193;-69
2022/07/13 08:01:41;;;;;;;19.67;2.00;;;;;;;32.02;23.31;99788.78;5035450;28;20657;-70
2022/07/13 08:04:08;;;;;;;2.13;0.97;;;;;;;31.92;23.25;99787.19;5035461;28;20217;-70
2022/07/13 08:06:35;;;;;;;1.23;0.60;;;;;;;31.67;23.01;99782.56;5036153;28;20193;-70
2022/07/13 08:09:02;;;;;;;2.07;0.80;;;;;;;31.43;23.50;99793.25;5035496;28;20197;-70
2022/07/13 08:11:28;;;;;;;2.27;0.87;;;;;;;31.45;24.18;99796.50;5035115;28;20665;-70
2022/07/13 08:13:55;;;;;;;3.03;1.30;;;;;;;30.97;24.41;99789.53;5034979;28;20197;-70
2022/07/13 08:16:24;;;;;;;8.30;1.90;;;;;;;31.19;23.99;99789.41;5035058;28;20243;-70
2022/07/13 08:18:50;;;;;;;2.40;1.40;;;;;;;31.16;24.36;99793.59;5035218;28;20276;-70
2022/07/13 08:21:17;;;;;;;1.70;0.53;;;;;;;31.36;24.77;99781.97;5035048;28;20601;-70
2022/07/13 08:23:54;;;;;;;2.37;0.67;;;;;;;31.00;24.17;99786.16;5034947;28;20670;-70
2022/07/13 08:26:22;;;;;;;6.20;0.80;;;;;;;31.38;23.73;99779.72;5036121;28;20185;-70
2022/07/13 08:28:49;;;;;;;7.63;1.17;;;;;;;31.83;23.34;99786.41;5035108;28;20193;-70
2022/07/13 08:31:16;;;;;;;1.13;0.73;;;;;;;31.61;23.66;99778.34;5035127;28;20201;-70
2022/07/13 08:39:13;;;;;;;2.57;0.87;;;;;;;31.31;23.45;99778.59;5034703;28;20247;-69
2022/07/13 08:41:40;;;;;;;1.80;0.70;;;;;;;30.88;23.45;99792.31;5051060;28;20228;-69
2022/07/13 08:44:07;;;;;;;1.60;0.63;;;;;;;31.18;23.76;99791.31;5054092;28;20279;-69
2022/07/13 08:46:34;;;;;;;5.57;1.13;;;;;;;31.33;23.02;99788.13;5054206;28;20657;-69
2022/07/13 08:49:03;;;;;;;4.73;1.03;;;;;;;31.89;22.96;99782.34;5054524;28;20196;-69
2022/07/13 08:51:32;;;;;;;5.17;0.70;;;;;;;32.47;21.76;99782.41;5054621;28;20226;-70
2022/07/13 08:54:03;;;;;;;2.43;0.73;;;;;;;32.94;22.24;99778.38;5053820;28;20627;-70
2022/07/13 08:56:31;;;;;;;3.07;0.90;;;;;;;32.27;21.90;99780.41;5054017;28;20193;-70
2022/07/13 08:58:58;;;;;;;2.63;0.90;;;;;;;32.79;21.90;99770.69;5054296;28;20192;-71
2022/07/13 09:01:26;;;;;;;4.60;0.90;;;;;;;33.18;21.27;99775.75;5054215;28;20203;-70
2022/07/13 09:03:53;;;;;;;7.73;0.97;;;;;;;33.13;21.18;99789.75;5053994;28;20252;-70
2022/07/13 09:06:44;;;;;;;5.95;1.38;;;;;;;32.64;21.42;99785.06;5054384;28;20291;-70
2022/07/13 09:09:33;;;;;;;14.87;1.20;;;;;;;32.32;21.89;99772.00;5052684;28;20192;-70
2022/07/13 09:12:16;;;;;;;0.83;0.70;;;;;;;31.63;22.13;99776.09;5053913;28;20301;-69
2022/07/13 09:14:44;;;;;;;1.73;0.70;;;;;;;31.74;22.39;99782.88;5053910;28;20189;-69
2022/07/13 09:17:28;;;;;;;3.40;0.87;;;;;;;31.98;21.80;99777.63;5054312;28;20200;-69
2022/07/13 09:19:54;;;;;;;3.47;0.83;;;;;;;32.68;21.14;99780.50;5053837;28;20243;-70
2022/07/13 09:22:22;;;;;;;1.70;1.00;;;;;;;32.62;21.99;99781.81;5053893;28;20192;-70
2022/07/13 09:24:53;;;;;;;1.40;0.60;;;;;;;32.30;22.19;99785.25;5053985;28;20224;-70
2022/07/13 09:27:21;;;;;;;1.47;0.70;;;;;;;32.45;21.09;99784.69;5054289;28;20193;-70
2022/07/13 09:29:48;;;;;;;2.03;0.80;;;;;;;32.33;21.33;99784.59;5053413;28;20197;-70
2022/07/13 09:32:16;;;;;;;2.60;0.80;;;;;;;32.37;21.42;99780.03;5053710;28;20254;-70
2022/07/13 09:34:50;;;;;;;0.83;0.60;;;;;;;32.77;21.27;99784.00;5053512;28;20266;-70
2022/07/13 09:37:19;;;;;;;7.70;1.27;;;;;;;32.38;21.25;99787.16;5054215;28;20190;-70
2022/07/13 09:40:08;;;;;;;5.10;0.83;;;;;;;32.76;21.12;99782.41;5053670;28;20270;-70
2022/07/13 09:42:36;;;;;;;1.47;0.60;;;;;;;32.64;20.75;99779.56;5054481;28;20590;-70
2022/07/13 09:47:53;;;;;;;2.57;0.70;;;;;;;32.77;21.33;99778.50;5053732;28;20342;-70
2022/07/13 09:50:20;;;;;;;1.70;0.90;;;;;;;32.85;20.55;99769.41;5053796;28;20193;-70
2022/07/13 09:52:48;;;;;;;8.00;1.20;;;;;;;33.11;20.60;99769.97;5053903;28;20293;-70
2022/07/13 09:55:24;;;;;;;4.20;0.70;;;;;;;32.85;21.03;99763.88;5053408;28;20671;-70
2022/07/13 09:57:53;;;;;;;1.43;0.80;;;;;;;32.43;20.87;99756.72;5053303;28;20242;-71
2022/07/13 10:00:21;;;;;;;4.37;0.83;;;;;;;32.07;21.58;99756.41;5052992;28;20671;-70
2022/07/13 10:02:49;;;;;;;5.50;1.10;;;;;;;32.54;22.11;99748.88;5052850;28;20199;-70
2022/07/13 10:05:17;;;;;;;3.17;0.93;;;;;;;32.92;21.32;99758.63;5052984;28;20223;-71
2022/07/13 10:07:45;;;;;;;0.77;0.77;;;;;;;32.85;20.99;99758.38;5053319;28;20196;-69
2022/07/13 10:10:13;;;;;;;2.93;0.70;;;;;;;32.85;20.26;99752.88;5053578;28;20197;-69
2022/07/13 10:12:42;;;;;;;4.50;1.10;;;;;;;32.88;20.75;99743.97;5053189;28;20275;-69
2022/07/13 10:15:11;;;;;;;5.13;0.93;;;;;;;33.10;19.95;99732.56;5053044;28;20196;-69
2022/07/13 10:17:39;;;;;;;1.83;0.70;;;;;;;33.20;20.24;99743.16;5053237;28;20197;-70
2022/07/13 10:20:11;;;;;;;1.00;0.70;;;;;;;32.35;21.05;99727.34;5052618;28;20226;-69
2022/07/13 10:22:45;;;;;;;0.93;0.90;;;;;;;32.27;21.24;99730.09;5052692;28;20564;-69
2022/07/13 10:25:12;;;;;;;1.80;0.93;;;;;;;32.43;21.37;99728.41;5053534;28;20220;-69
2022/07/13 10:27:43;;;;;;;2.77;0.70;;;;;;;32.61;21.15;99719.69;5052917;28;20188;-69
2022/07/13 10:30:11;;;;;;;1.40;0.70;;;;;;;32.79;20.92;99710.13;5052500;28;20231;-69
2022/07/13 10:32:40;;;;;;;1.80;0.63;;;;;;;32.58;21.13;99716.81;5053249;28;20197;-70
2022/07/13 10:35:09;;;;;;;4.23;1.70;;;;;;;31.60;22.31;99707.28;5052445;28;20197;-69
2022/07/13 10:38:13;;;;;;;3.00;1.20;;;;;;;30.70;22.59;99708.34;5052456;28;20676;-68
2022/07/13 10:40:40;;;;;;;2.10;0.83;;;;;;;30.81;23.65;99704.16;5052271;28;20188;-68
2022/07/13 10:43:17;;;;;;;4.53;1.03;;;;;;;31.07;23.39;99704.94;5053406;28;20626;-69
2022/07/13 10:45:48;;;;;;;1.17;1.07;;;;;;;31.49;23.03;99708.75;5052007;28;20274;-70
2022/07/13 10:48:48;;;;;;;3.47;0.90;;;;;;;31.78;23.09;99695.91;5053173;28;20181;-69
2022/07/13 10:51:20;;;;;;;5.83;1.17;;;;;;;31.94;22.63;99694.22;5052446;28;20188;-70
2022/07/13 10:54:10;;;;;;;2.67;0.80;;;;;;;31.54;22.72;99701.16;5052316;28;20283;-69
2022/07/13 10:56:37;;;;;;;3.80;0.93;;;;;;;31.09;23.93;99691.72;5051779;28;20276;-70
2022/07/13 10:59:07;;;;;;;3.23;1.00;;;;;;;31.16;24.11;99694.78;5051758;28;20676;-69
2022/07/13 11:01:48;;;;;;;1.90;1.27;;;;;;;31.43;23.65;99697.13;5052054;28;20193;-68
2022/07/13 11:04:17;;;;;;;1.00;0.80;;;;;;;31.53;23.76;99688.56;5051904;28;20687;-67
2022/07/13 11:07:07;;;;;;;10.97;1.30;;;;;;;31.28;23.60;99692.16;5051882;28;20258;-70
2022/07/13 11:09:34;;;;;;;1.27;1.00;;;;;;;31.31;22.84;99690.72;5051995;28;20718;-70
2022/07/13 11:12:01;;;;;;;5.40;1.00;;;;;;;31.46;23.42;99682.75;5052005;28;20192;-70
2022/07/13 11:14:49;;;;;;;1.93;0.80;;;;;;;31.68;22.49;99679.75;5052137;28;20200;-68
2022/07/13 11:17:18;;;;;;;4.00;0.90;;;;;;;31.58;23.00;99680.13;5051529;28;20228;-69
2022/07/13 11:19:56;;;;;;;2.17;0.93;;;;;;;31.95;22.84;99678.53;5051879;28;20196;-69
2022/07/13 11:22:24;;;;;;;4.67;1.33;;;;;;;32.23;22.61;99674.97;5051634;28;20610;-70
2022/07/13 11:25:15;;;;;;;2.17;1.00;;;;;;;32.40;22.19;99669.38;5051430;28;20362;-70
2022/07/13 11:27:56;;;;;;;11.23;2.10;;;;;;;32.59;22.45;99658.69;5051726;28;20238;-70
2022/07/13 11:30:29;;;;;;;2.03;0.93;;;;;;;32.45;22.55;99665.59;5051994;28;20216;-70
2022/07/13 11:32:56;;;;;;;4.83;1.10;;;;;;;32.26;22.45;99663.28;5053941;28;20176;-70
2022/07/13 11:35:23;;;;;;;5.50;1.20;;;;;;;31.54;22.66;99662.69;5056069;28;20199;-70
2022/07/13 11:37:51;;;;;;;3.07;1.20;;;;;;;31.59;23.15;99659.75;5055482;28;20196;-70
2022/07/13 11:40:28;;;;;;;2.93;1.10;;;;;;;31.68;22.92;99657.00;5055767;28;20621;-69
2022/07/13 11:42:56;;;;;;;1.43;1.07;;;;;;;31.75;22.59;99649.00;5056055;28;20289;-70
2022/07/13 11:45:32;;;;;;;0.80;0.77;;;;;;;31.77;22.48;99655.03;5055628;28;20223;-70
2022/07/13 11:48:00;;;;;;;1.27;0.60;;;;;;;31.97;21.78;99644.06;5055769;28;20203;-69